FIMP/MRU METAR and TAF weather

Enter ICAO airport designator
Station Type Date Time Source
FIMP METAR 2019/08/19 12:00 UTC NOAA

FIMP 191200Z 07003KT 8000 VCSH FEW005 SCT015 BKN050 21/19 Q1020 RESH


Station Type Date Time Source
FIMP Decoded METAR 2019/08/19 12:00 UTC NOAA

Station name not available
Aug 19, 2019 - 08:00 AM EDT / 2019.08.19 1200 UTC
Wind: from the ENE (070 degrees) at 3 MPH (3 KT):0
Visibility: 4 mile(s):0
Sky conditions: mostly cloudy
Weather: showers in the vicinity
Temperature: 69 F (21 C)
Dew Point: 66 F (19 C)
Relative Humidity: 88%
Pressure (altimeter): 30.12 in. Hg (1020 hPa)
ob: FIMP 191200Z 07003KT 8000 VCSH FEW005 SCT015 BKN050 21/19 Q1020 RESH
cycle: 12

Station Type Date Time Source
FIMP TAF 2019/08/19 12:12 UTC NOAA

TAF TAF FIMP 191110Z 1912/2018 12010KT 9999 SCT016 PROB30
TEMPO 1916/2012 7000 -SHRA FEW010 SCT014 BKN050
BECMG 2004/2006 09020G30KT

Example: see airport list